createdAt,value
2022-12-15T00:01:14.895Z,512.94
2022-12-15T00:06:22.148Z,513.65
2022-12-15T00:11:29.313Z,511.53
2022-12-15T00:16:36.596Z,512.73
2022-12-15T00:21:43.719Z,513.91
2022-12-15T00:26:50.924Z,511.64
2022-12-15T00:31:58.279Z,510.89
2022-12-15T00:37:05.334Z,510.05
2022-12-15T00:42:12.515Z,509.33
2022-12-15T00:47:19.772Z,507.81
2022-12-15T00:52:26.952Z,507.00
2022-12-15T00:57:34.138Z,507.55
2022-12-15T01:02:41.552Z,507.43
2022-12-15T01:07:49.507Z,505.79
2022-12-15T01:12:55.834Z,506.98
2022-12-15T01:18:03.132Z,505.32
2022-12-15T01:23:10.296Z,503.17
2022-12-15T01:28:17.515Z,502.47
2022-12-15T01:33:24.740Z,502.63
2022-12-15T01:38:31.925Z,502.82
2022-12-15T01:43:39.225Z,502.26
2022-12-15T01:48:46.463Z,501.82
2022-12-15T01:53:53.640Z,501.58
2022-12-15T01:59:00.826Z,501.77
2022-12-15T02:04:08.057Z,500.86
2022-12-15T02:09:15.174Z,500.63
2022-12-15T02:14:22.323Z,500.95
2022-12-15T02:19:29.578Z,500.57
2022-12-15T02:24:36.784Z,501.08
2022-12-15T02:29:44.067Z,501.06
2022-12-15T02:34:51.289Z,500.85
2022-12-15T02:39:58.480Z,499.93
2022-12-15T02:45:05.621Z,499.18
2022-12-15T02:50:12.912Z,499.22
2022-12-15T02:55:20.080Z,499.41
2022-12-15T03:00:27.245Z,499.57
2022-12-15T03:05:34.484Z,499.94
2022-12-15T03:10:41.694Z,499.85
2022-12-15T03:15:48.907Z,499.55
2022-12-15T03:20:56.407Z,499.08
2022-12-15T03:26:03.293Z,496.25
2022-12-15T03:31:10.475Z,496.22
2022-12-15T03:36:17.743Z,497.08
2022-12-15T03:41:24.905Z,497.02
2022-12-15T03:46:32.082Z,498.08
2022-12-15T03:51:39.338Z,499.03
2022-12-15T03:56:46.524Z,498.50
2022-12-15T04:01:53.859Z,497.40
2022-12-15T04:07:00.963Z,497.03
2022-12-15T04:12:08.149Z,497.13
2022-12-15T04:17:15.454Z,497.12
2022-12-15T04:22:22.589Z,497.09
2022-12-15T04:27:29.828Z,497.49
2022-12-15T04:32:36.970Z,496.88
2022-12-15T04:37:44.210Z,496.76
2022-12-15T04:42:51.394Z,495.90
2022-12-15T04:47:58.593Z,495.06
2022-12-15T04:53:05.871Z,493.82
2022-12-15T04:58:13.103Z,493.41
2022-12-15T05:03:20.307Z,493.48
2022-12-15T05:08:27.542Z,493.79
2022-12-15T05:13:35.095Z,494.80
2022-12-15T05:18:41.908Z,495.33
2022-12-15T05:23:49.151Z,494.59
2022-12-15T05:28:56.389Z,493.01
2022-12-15T05:34:05.797Z,492.68
2022-12-15T05:39:10.963Z,493.58
2022-12-15T05:44:18.111Z,492.88
2022-12-15T05:49:25.337Z,492.37
2022-12-15T05:54:32.588Z,492.02
2022-12-15T05:59:39.761Z,491.67
2022-12-15T06:04:47.041Z,492.50
2022-12-15T06:09:54.209Z,492.29
2022-12-15T06:15:01.369Z,492.04
2022-12-15T06:20:08.584Z,491.85
2022-12-15T06:25:15.845Z,492.09
2022-12-15T06:30:22.995Z,492.52
2022-12-15T06:35:30.193Z,491.91
2022-12-15T06:40:38.265Z,491.77
2022-12-15T06:45:44.551Z,491.31
2022-12-15T06:50:51.759Z,490.50
2022-12-15T06:55:59.015Z,490.46
2022-12-15T07:01:06.198Z,490.17
2022-12-15T07:06:13.397Z,490.16
2022-12-15T07:11:20.663Z,489.45
2022-12-15T07:16:27.864Z,489.93
2022-12-15T07:21:34.921Z,489.66
2022-12-15T07:26:42.152Z,489.44
2022-12-15T07:31:49.413Z,488.76
2022-12-15T07:36:56.529Z,488.03
2022-12-15T07:42:03.761Z,487.14
2022-12-15T07:47:10.930Z,485.61
2022-12-15T07:52:18.144Z,484.61
2022-12-15T07:57:25.380Z,483.83
2022-12-15T08:02:32.830Z,483.90
2022-12-15T08:07:39.749Z,484.88
2022-12-15T08:12:47.012Z,484.60
2022-12-15T08:17:54.145Z,484.69
2022-12-15T08:23:01.323Z,483.35
2022-12-15T08:28:08.500Z,483.90
2022-12-15T08:33:15.687Z,483.43
2022-12-15T08:38:22.902Z,483.12
2022-12-15T08:43:30.567Z,482.51
2022-12-15T08:48:37.313Z,481.70
2022-12-15T08:53:45.104Z,481.91
2022-12-15T08:58:51.730Z,482.31
2022-12-15T09:03:58.994Z,483.39
2022-12-15T09:09:06.152Z,484.32
2022-12-15T09:14:13.362Z,484.68
2022-12-15T09:19:20.532Z,484.60
2022-12-15T09:24:34.658Z,485.44
2022-12-15T09:29:34.947Z,484.08
2022-12-15T09:34:42.159Z,483.89
2022-12-15T09:39:49.351Z,483.61
2022-12-15T09:44:56.627Z,484.26
2022-12-15T09:50:03.963Z,483.39
2022-12-15T09:55:11.195Z,484.45
2022-12-15T10:00:18.453Z,485.02
2022-12-15T10:05:38.111Z,486.57
2022-12-15T10:10:32.743Z,487.20
2022-12-15T10:15:40.037Z,486.95
2022-12-15T10:20:48.502Z,486.76
2022-12-15T10:25:54.384Z,487.18
2022-12-15T10:31:01.727Z,487.26
2022-12-15T10:36:08.775Z,486.30
2022-12-15T10:41:15.945Z,486.10
2022-12-15T10:46:23.217Z,486.83
2022-12-15T10:51:30.381Z,487.42
2022-12-15T10:56:37.583Z,489.37
2022-12-15T11:01:45.049Z,490.16
2022-12-15T11:06:52.011Z,490.82
2022-12-15T11:11:59.197Z,490.89
2022-12-15T11:17:06.379Z,491.33
2022-12-15T11:22:13.541Z,492.18
2022-12-15T11:27:20.751Z,493.38
2022-12-15T11:32:27.963Z,492.62
2022-12-15T11:37:36.802Z,493.74
2022-12-15T11:42:42.351Z,493.32
2022-12-15T11:47:49.590Z,493.98
2022-12-15T11:52:56.778Z,494.50
2022-12-15T11:58:04.006Z,494.81
2022-12-15T12:03:11.221Z,496.28
2022-12-15T12:08:18.402Z,497.01
2022-12-15T12:13:25.612Z,497.74
2022-12-15T12:18:33.499Z,497.05
2022-12-15T12:23:40.113Z,496.92
2022-12-15T12:28:48.798Z,497.97
2022-12-15T12:33:54.540Z,498.17
2022-12-15T12:39:01.884Z,498.26
2022-12-15T12:44:09.140Z,499.10
2022-12-15T12:49:21.339Z,499.63
2022-12-15T12:54:23.521Z,499.88
2022-12-15T12:59:30.751Z,500.45
2022-12-15T13:04:37.957Z,501.40
2022-12-15T13:09:45.233Z,501.45
2022-12-15T13:14:52.418Z,502.72
2022-12-15T13:19:59.623Z,503.22
2022-12-15T13:25:06.745Z,503.60
2022-12-15T13:30:14.112Z,504.42
2022-12-15T13:35:21.190Z,504.93
2022-12-15T13:40:28.366Z,504.85
2022-12-15T13:45:35.676Z,505.51
2022-12-15T13:50:42.802Z,505.09
2022-12-15T13:55:51.171Z,505.97
2022-12-15T14:00:57.428Z,506.05
2022-12-15T14:06:04.638Z,505.35
2022-12-15T14:11:46.089Z,505.66
2022-12-15T14:16:19.147Z,506.30
2022-12-15T14:21:26.301Z,505.96
2022-12-15T14:26:33.524Z,506.27
2022-12-15T14:31:40.866Z,507.43
2022-12-15T14:36:47.946Z,506.72
2022-12-15T14:41:55.123Z,508.20
2022-12-15T14:47:02.325Z,507.79
2022-12-15T14:52:09.558Z,507.32
2022-12-15T14:57:16.761Z,508.11
2022-12-15T15:02:24.081Z,508.46
2022-12-15T15:07:31.162Z,508.78
2022-12-15T15:12:38.355Z,508.95
2022-12-15T15:17:45.567Z,509.33
2022-12-15T15:22:52.793Z,509.90
2022-12-15T15:27:59.982Z,510.00
2022-12-15T15:33:07.183Z,509.64
2022-12-15T15:38:14.410Z,510.36
2022-12-15T15:43:21.598Z,509.62
2022-12-15T15:48:29.309Z,508.86
2022-12-15T15:53:36.044Z,509.26
2022-12-15T15:58:43.202Z,509.87
2022-12-15T16:03:50.486Z,509.48
2022-12-15T16:08:57.671Z,510.43
2022-12-15T16:14:04.845Z,510.46
2022-12-15T16:19:12.062Z,512.17
2022-12-15T16:24:19.347Z,512.38
2022-12-15T16:29:26.448Z,513.20
2022-12-15T16:34:33.618Z,513.75
2022-12-15T16:39:41.045Z,514.17
2022-12-15T16:44:48.226Z,514.46
2022-12-15T16:49:55.460Z,514.68
2022-12-15T16:55:02.674Z,514.47
2022-12-15T17:00:09.902Z,513.68
2022-12-15T17:05:17.463Z,513.38
2022-12-15T17:10:25.116Z,513.57
2022-12-15T17:15:32.555Z,513.97
2022-12-15T17:20:39.681Z,514.41
2022-12-15T17:26:18.501Z,515.05
2022-12-15T17:30:54.153Z,515.31
2022-12-15T17:36:01.304Z,515.87
2022-12-15T17:41:08.712Z,517.23
2022-12-15T17:46:16.194Z,517.86
2022-12-15T17:51:23.439Z,518.07
2022-12-15T17:56:30.695Z,518.72
2022-12-15T18:01:37.971Z,519.07
2022-12-15T18:06:45.047Z,519.99
2022-12-15T18:11:52.575Z,520.81
2022-12-15T18:16:59.870Z,521.12
2022-12-15T18:22:07.372Z,521.96
2022-12-15T18:27:15.007Z,521.81
2022-12-15T18:32:22.618Z,522.50
2022-12-15T18:37:30.312Z,522.74
2022-12-15T18:42:38.059Z,523.31
2022-12-15T18:47:45.542Z,523.49
2022-12-15T18:52:53.056Z,523.57
2022-12-15T18:58:00.416Z,523.25
2022-12-15T19:03:08.084Z,522.98
2022-12-15T19:08:15.268Z,522.92
2022-12-15T19:13:22.816Z,523.64
2022-12-15T19:18:30.412Z,524.16
2022-12-15T19:23:37.730Z,524.18
2022-12-15T19:28:44.947Z,524.58
2022-12-15T19:33:52.451Z,524.23
2022-12-15T19:39:01.069Z,523.41
2022-12-15T19:44:08.803Z,523.37
2022-12-15T19:49:16.195Z,522.86
2022-12-15T19:54:23.816Z,523.26
2022-12-15T19:59:31.450Z,523.96
2022-12-15T20:04:38.936Z,523.96
2022-12-15T20:09:46.282Z,524.40
2022-12-15T20:14:53.513Z,524.30
2022-12-15T20:20:00.645Z,525.60
2022-12-15T20:25:07.872Z,525.05
2022-12-15T20:30:15.106Z,525.37
2022-12-15T20:35:22.328Z,525.56
2022-12-15T20:40:29.545Z,525.59
2022-12-15T20:45:36.881Z,524.57
2022-12-15T20:50:43.979Z,524.80
2022-12-15T20:55:51.198Z,524.35
2022-12-15T21:00:58.832Z,524.02
2022-12-15T21:06:06.031Z,523.57
2022-12-15T21:11:13.273Z,523.15
2022-12-15T21:16:20.611Z,522.82
2022-12-15T21:21:27.733Z,523.09
2022-12-15T21:26:34.888Z,521.75
2022-12-15T21:31:42.195Z,521.84
2022-12-15T21:36:49.365Z,522.23
2022-12-15T21:41:56.605Z,521.50
2022-12-15T21:47:03.899Z,521.31
2022-12-15T21:52:11.083Z,521.06
2022-12-15T21:57:18.293Z,520.60
2022-12-15T22:02:25.792Z,520.40
2022-12-15T22:07:32.781Z,519.72
2022-12-15T22:12:40.033Z,519.40
2022-12-15T22:17:47.355Z,519.19
2022-12-15T22:22:54.595Z,518.89
2022-12-15T22:28:01.807Z,517.56
2022-12-15T22:33:09.086Z,517.14
2022-12-15T22:38:16.303Z,516.25
2022-12-15T22:43:23.522Z,516.66
2022-12-15T22:48:31.176Z,516.20
2022-12-15T22:53:37.951Z,516.23
2022-12-15T22:58:45.140Z,515.46
2022-12-15T23:03:52.530Z,515.12
2022-12-15T23:08:59.552Z,515.10
2022-12-15T23:14:06.774Z,515.39
2022-12-15T23:19:13.981Z,515.36
2022-12-15T23:24:21.086Z,515.77
2022-12-15T23:29:28.320Z,515.46
2022-12-15T23:34:35.564Z,514.96
2022-12-15T23:39:42.771Z,514.97
2022-12-15T23:44:50.007Z,514.55
2022-12-15T23:49:57.225Z,514.15
2022-12-15T23:55:04.447Z,513.98
